Time;durP1;ratioP1;P1;durP2;ratioP2;P2;SDS_P1;SDS_P2;PMS_P1;PMS_P2;Temp;Humidity;BMP_temperature;BMP_pressure;BME280_temperature;BME280_humidity;BME280_pressure;Samples;Min_cycle;Max_cycle;Signal;HPM_P1;HPM_P2
2022/12/23 04:40:35;;;;;;;16.45;9.65;;;13.40;68.70;;;;;;4859400;29;20121;-81
2022/12/23 04:43:01;;;;;;;36.42;11.02;;;13.40;69.00;;;;;;4847886;29;20065;-81
2022/12/23 04:45:27;;;;;;;20.40;9.93;;;13.40;69.20;;;;;;4832286;29;20368;-84
2022/12/23 04:47:54;;;;;;;21.95;10.15;;;13.50;69.50;;;;;;4863719;29;20211;-83
2022/12/23 04:50:20;;;;;;;26.92;9.32;;;13.70;69.40;;;;;;4847129;29;20155;-81
2022/12/23 04:52:45;;;;;;;14.27;9.25;;;13.90;69.30;;;;;;4863516;29;20053;-81
2022/12/23 04:55:18;;;;;;;20.10;9.88;;;14.10;69.20;;;;;;4845522;29;20053;-86
2022/12/23 04:59:01;;;;;;;;;;;;;;;;;;;;;
2022/12/23 05:01:36;;;;;;;18.65;8.63;;;14.40;69.10;;;;;;4806166;29;20419;-85
2022/12/23 05:04:01;;;;;;;18.38;8.30;;;14.50;69.20;;;;;;4806294;29;20051;-79
2022/12/23 05:06:49;;;;;;;23.75;7.82;;;14.60;69.10;;;;;;4791177;29;20049;-86
2022/12/23 05:18:11;;;;;;;15.23;6.68;;;14.90;70.30;;;;;;5006030;23;20093;-86
2022/12/23 05:20:40;;;;;;;16.83;6.30;;;15.00;70.40;;;;;;4846692;29;20136;-85
2022/12/23 05:23:09;;;;;;;17.92;6.55;;;15.10;70.50;;;;;;4846494;29;20062;-85
2022/12/23 05:33:33;;;;;;;15.57;5.53;;;15.40;70.70;;;;;;4804982;29;20056;-86
2022/12/23 05:39:39;;;;;;;23.48;5.68;;;15.60;70.40;;;;;;4827593;29;20058;-84
2022/12/23 05:42:05;;;;;;;28.50;5.93;;;15.70;70.30;;;;;;4828094;29;20065;-83
2022/12/23 05:51:26;;;;;;;34.97;5.15;;;15.90;70.40;;;;;;5004229;24;20060;-83
2022/12/23 05:53:57;;;;;;;27.83;6.05;;;15.80;70.60;;;;;;4849254;29;20345;-83
2022/12/23 05:56:27;;;;;;;28.38;5.85;;;15.90;70.60;;;;;;4848923;29;20468;-84
2022/12/23 05:58:53;;;;;;;29.50;5.88;;;15.90;70.40;;;;;;4864313;29;20037;-82
2022/12/23 06:01:21;;;;;;;25.80;4.75;;;16.00;70.40;;;;;;4849378;29;20056;-82
2022/12/23 06:04:11;;;;;;;25.35;5.15;;;16.00;70.40;;;;;;4864567;29;20488;-83
2022/12/23 06:06:45;;;;;;;19.95;4.22;;;16.00;70.30;;;;;;4849988;29;20057;-78
2022/12/23 06:09:11;;;;;;;24.45;5.32;;;16.00;70.40;;;;;;4884225;29;20112;-77
2022/12/23 06:11:37;;;;;;;27.02;5.38;;;16.10;70.40;;;;;;4884852;29;20070;-76
2022/12/23 06:14:03;;;;;;;21.70;4.50;;;16.20;70.20;;;;;;4884937;29;20517;-75
2022/12/23 06:16:28;;;;;;;23.00;4.82;;;16.20;70.10;;;;;;4884732;29;20121;-81
2022/12/23 06:18:55;;;;;;;21.95;3.90;;;16.20;70.00;;;;;;4853133;29;20175;-77
2022/12/23 06:21:21;;;;;;;23.02;5.68;;;16.20;70.00;;;;;;4884652;29;20053;-76
2022/12/23 06:23:46;;;;;;;22.65;4.80;;;16.20;66.90;;;;;;4884725;29;20357;-76
2022/12/23 06:26:15;;;;;;;24.70;5.50;;;15.80;68.50;;;;;;4883939;29;20116;-84
2022/12/23 06:28:41;;;;;;;25.00;5.20;;;15.90;69.60;;;;;;4852511;29;20049;-76
2022/12/23 06:31:06;;;;;;;25.58;5.22;;;16.00;70.10;;;;;;4884300;29;20049;-78
2022/12/23 06:33:32;;;;;;;25.92;5.20;;;16.00;70.10;;;;;;4884263;29;20353;-79
2022/12/23 06:36:01;;;;;;;36.58;5.30;;;16.10;70.00;;;;;;4867878;29;20053;-82
2022/12/23 06:38:26;;;;;;;29.63;5.10;;;16.10;69.80;;;;;;4884404;29;20068;-77
2022/12/23 06:40:52;;;;;;;29.48;6.13;;;16.10;69.90;;;;;;4884362;29;20091;-78
2022/12/23 06:43:18;;;;;;;16.15;6.05;;;16.10;69.10;;;;;;4867860;29;20057;-79
2022/12/23 06:45:47;;;;;;;22.83;7.47;;;16.00;67.80;;;;;;4883399;29;20045;-75
2022/12/23 06:48:13;;;;;;;20.73;7.20;;;15.90;66.70;;;;;;4865828;29;20085;-77
2022/12/23 06:50:39;;;;;;;24.13;6.40;;;15.80;66.20;;;;;;4865615;29;20503;-80
2022/12/23 06:53:05;;;;;;;15.73;7.07;;;15.80;66.00;;;;;;4849552;29;20142;-80
2022/12/23 06:55:31;;;;;;;24.48;7.13;;;15.70;65.80;;;;;;4848911;29;20132;-81
2022/12/23 06:57:57;;;;;;;18.63;6.65;;;15.70;65.70;;;;;;4862089;29;20056;-82
2022/12/23 07:00:22;;;;;;;18.00;6.53;;;15.60;65.70;;;;;;4883792;29;20045;-79
2022/12/23 07:02:48;;;;;;;16.17;6.22;;;15.60;65.90;;;;;;4852499;29;20053;-80
2022/12/23 07:05:14;;;;;;;16.08;5.90;;;15.60;65.90;;;;;;4867395;29;20037;-83
2022/12/23 07:07:40;;;;;;;13.10;6.13;;;15.50;66.00;;;;;;4867866;29;20096;-79
2022/12/23 07:10:06;;;;;;;11.60;5.18;;;15.40;66.00;;;;;;4883844;29;20085;-80
2022/12/23 07:12:32;;;;;;;16.88;5.75;;;15.40;66.10;;;;;;4852271;29;20068;-81
2022/12/23 07:14:58;;;;;;;12.88;5.50;;;15.40;66.30;;;;;;4867624;29;20052;-79
2022/12/23 07:17:24;;;;;;;14.18;5.13;;;15.30;66.40;;;;;;4883373;29;20061;-82
2022/12/23 07:19:50;;;;;;;11.60;4.85;;;15.30;66.50;;;;;;4866669;29;20081;-82
2022/12/23 07:22:16;;;;;;;11.20;5.68;;;15.30;66.60;;;;;;4883931;29;20376;-78
2022/12/23 07:24:41;;;;;;;7.72;4.13;;;15.30;66.60;;;;;;4867466;29;20101;-81
2022/12/23 07:27:07;;;;;;;8.40;4.32;;;15.20;66.70;;;;;;4866582;29;20108;-81
2022/12/23 07:29:33;;;;;;;13.75;4.53;;;15.20;66.80;;;;;;4882979;29;20139;-81
2022/12/23 07:32:00;;;;;;;9.35;4.13;;;15.20;66.80;;;;;;4867657;29;20071;-79
2022/12/23 07:34:26;;;;;;;9.02;4.05;;;15.20;66.80;;;;;;4867259;29;20063;-80
2022/12/23 07:36:51;;;;;;;9.15;4.45;;;15.20;66.90;;;;;;4866992;29;20120;-79
2022/12/23 07:39:17;;;;;;;8.60;3.92;;;15.10;66.90;;;;;;4867365;29;20445;-81
2022/12/23 07:41:43;;;;;;;10.23;4.00;;;15.10;67.00;;;;;;4866841;29;20049;-82
2022/12/23 07:44:08;;;;;;;8.43;4.60;;;15.00;66.90;;;;;;4867709;29;20418;-80
2022/12/23 07:46:34;;;;;;;12.93;4.03;;;15.00;66.90;;;;;;4866390;29;20132;-80
2022/12/23 07:49:00;;;;;;;6.90;3.53;;;15.00;67.00;;;;;;4883495;29;20326;-80
2022/12/23 07:51:26;;;;;;;7.35;3.80;;;15.00;67.00;;;;;;4850394;29;20057;-81
2022/12/23 07:53:52;;;;;;;7.50;4.13;;;15.00;67.20;;;;;;4866585;29;20056;-79
2022/12/23 07:56:18;;;;;;;11.75;5.80;;;15.00;67.20;;;;;;4866686;29;20056;-82
2022/12/23 07:58:50;;;;;;;9.23;5.35;;;15.00;67.00;;;;;;4883158;29;20116;-81
2022/12/23 08:01:17;;;;;;;11.60;6.60;;;15.00;66.60;;;;;;4882826;29;20048;-81
2022/12/23 08:03:48;;;;;;;11.90;5.82;;;14.90;66.10;;;;;;4866918;29;20425;-86
2022/12/23 08:06:15;;;;;;;10.23;5.45;;;14.90;65.80;;;;;;4864130;29;20358;-78
2022/12/23 08:08:44;;;;;;;12.02;5.47;;;14.90;65.90;;;;;;4882512;29;20080;-80
2022/12/23 08:11:11;;;;;;;12.82;5.15;;;15.00;66.00;;;;;;4865107;29;20053;-78
2022/12/23 08:13:40;;;;;;;9.68;5.20;;;15.10;65.80;;;;;;4866009;29;20107;-80
2022/12/23 08:16:07;;;;;;;8.95;4.38;;;15.30;65.50;;;;;;4881666;29;20049;-79
2022/12/23 08:18:35;;;;;;;8.75;4.00;;;15.40;65.20;;;;;;4865916;29;20068;-82
2022/12/23 08:21:04;;;;;;;9.77;3.95;;;15.60;65.00;;;;;;4882776;29;20376;-82
2022/12/23 08:23:31;;;;;;;12.85;3.67;;;15.60;64.80;;;;;;4882743;29;20052;-80
2022/12/23 08:26:01;;;;;;;10.90;3.47;;;15.70;64.90;;;;;;4866633;29;20049;-83
2022/12/23 08:28:27;;;;;;;10.73;4.10;;;15.70;64.60;;;;;;4851483;29;20053;-84
2022/12/23 08:30:53;;;;;;;11.90;4.05;;;15.80;64.50;;;;;;4850081;29;20063;-82
2022/12/23 08:33:18;;;;;;;11.43;3.45;;;15.80;64.60;;;;;;4882201;29;20343;-84
2022/12/23 08:35:56;;;;;;;10.70;4.22;;;15.80;64.60;;;;;;4850725;29;20052;-85
2022/12/23 08:38:22;;;;;;;12.68;3.80;;;15.80;64.80;;;;;;4850222;29;20049;-83
2022/12/23 08:40:47;;;;;;;14.60;4.93;;;15.80;64.80;;;;;;4850110;29;20049;-83
2022/12/23 08:43:16;;;;;;;13.98;3.50;;;15.80;65.10;;;;;;4866067;29;20452;-81
2022/12/23 08:45:41;;;;;;;9.55;3.40;;;15.90;65.30;;;;;;4881933;29;20119;-82
2022/12/23 08:48:07;;;;;;;12.43;3.35;;;15.90;65.30;;;;;;4850327;29;20041;-82
2022/12/23 08:50:41;;;;;;;14.00;3.28;;;15.90;65.30;;;;;;4881727;29;20053;-82
2022/12/23 08:53:08;;;;;;;14.15;3.80;;;16.10;65.40;;;;;;4865268;29;20056;-80
2022/12/23 08:55:42;;;;;;;7.47;2.80;;;16.20;65.20;;;;;;4865541;29;20049;-82
2022/12/23 08:58:09;;;;;;;14.05;3.33;;;16.30;65.00;;;;;;4865214;29;20060;-79
2022/12/23 09:00:36;;;;;;;13.40;2.92;;;16.40;64.90;;;;;;4865563;29;20060;-83
2022/12/23 09:03:02;;;;;;;10.23;2.95;;;16.40;64.90;;;;;;4864624;29;20460;-82
2022/12/23 11:13:22;;;;;;;6.05;2.33;;;15.10;66.50;;;;;;5684217;23;20457;-78
2022/12/23 11:17:32;;;;;;;10.35;2.95;;;15.00;66.10;;;;;;5133616;27;20335;-75
2022/12/23 11:20:14;;;;;;;4.38;2.85;;;15.10;66.60;;;;;;5112844;28;20043;-77
2022/12/23 11:23:01;;;;;;;8.32;2.85;;;15.10;66.30;;;;;;5108242;28;20070;-78
2022/12/23 11:25:29;;;;;;;8.85;2.50;;;15.10;66.10;;;;;;5098822;28;20043;-77
2022/12/23 11:27:59;;;;;;;7.57;2.05;;;15.10;66.00;;;;;;5083701;28;20133;-76
2022/12/23 11:30:27;;;;;;;7.35;2.45;;;15.10;66.10;;;;;;5094684;28;20415;-76
2022/12/23 11:32:52;;;;;;;4.00;2.25;;;15.10;66.20;;;;;;5091250;28;20370;-78
2022/12/23 11:35:31;;;;;;;6.88;2.50;;;15.10;66.20;;;;;;5092007;28;20059;-77
2022/12/23 11:37:59;;;;;;;5.60;2.03;;;15.10;66.30;;;;;;5091989;28;20044;-77
2022/12/23 11:40:36;;;;;;;4.18;1.83;;;15.00;66.40;;;;;;5092513;28;20044;-76
2022/12/23 11:43:04;;;;;;;4.03;1.55;;;15.00;66.50;;;;;;5074424;28;20049;-76
2022/12/23 11:45:36;;;;;;;7.22;2.13;;;15.00;66.40;;;;;;5091405;28;20587;-75
2022/12/23 11:48:04;;;;;;;4.05;1.65;;;14.90;66.00;;;;;;5091835;28;20095;-74
2022/12/23 11:50:34;;;;;;;6.20;1.58;;;14.80;66.40;;;;;;5091500;28;20049;-75
2022/12/23 11:53:12;;;;;;;2.97;1.80;;;14.70;66.80;;;;;;5092111;28;20032;-72
2022/12/23 11:56:01;;;;;;;4.25;1.58;;;14.70;67.00;;;;;;5074240;28;20455;-77
2022/12/23 11:58:29;;;;;;;6.63;1.75;;;14.70;67.00;;;;;;5091734;28;20048;-77
2022/12/23 12:00:58;;;;;;;6.10;1.92;;;14.60;67.50;;;;;;5091188;28;20122;-77
2022/12/23 12:03:41;;;;;;;4.63;1.73;;;14.60;67.60;;;;;;5102546;28;20055;-79
2022/12/23 12:06:12;;;;;;;4.20;1.67;;;14.60;67.80;;;;;;5109462;28;20086;-79
2022/12/23 12:08:39;;;;;;;3.85;1.33;;;14.60;68.00;;;;;;5110859;28;20043;-79
2022/12/23 12:11:18;;;;;;;4.18;1.33;;;14.60;68.10;;;;;;5085262;28;20047;-78
2022/12/23 12:13:56;;;;;;;9.50;1.88;;;14.50;68.00;;;;;;5081383;28;20354;-78
2022/12/23 12:16:34;;;;;;;5.50;2.50;;;14.50;68.40;;;;;;5096629;28;20060;-76
2022/12/23 12:19:09;;;;;;;4.72;2.17;;;14.50;68.50;;;;;;5095079;28;20048;-80
2022/12/23 12:21:37;;;;;;;7.53;2.40;;;14.60;68.90;;;;;;5110897;28;20465;-79
2022/12/23 12:24:29;;;;;;;7.95;1.80;;;14.50;69.00;;;;;;5105334;28;20097;-79
2022/12/23 12:27:00;;;;;;;4.90;2.20;;;14.50;69.10;;;;;;5059144;28;20061;-78
2022/12/23 12:29:49;;;;;;;6.95;1.85;;;14.50;69.30;;;;;;5077752;28;20518;-78
2022/12/23 12:32:44;;;;;;;5.18;2.22;;;14.50;69.40;;;;;;5077842;28;20371;-79
2022/12/23 12:35:20;;;;;;;7.75;2.28;;;14.40;69.10;;;;;;5048521;28;20067;-80
2022/12/23 12:37:54;;;;;;;13.95;3.60;;;14.50;69.70;;;;;;5096653;28;20079;-75
2022/12/23 12:40:38;;;;;;;;;;;14.50;69.70;;;;;;5098447;28;20055;-75
2022/12/23 12:43:22;;;;;;;25.13;7.25;;;14.50;69.20;;;;;;5061952;28;19972;-77
2022/12/23 12:46:15;;;;;;;14.63;6.22;;;14.60;68.50;;;;;;5060181;28;20048;-76
2022/12/23 12:49:13;;;;;;;16.15;7.32;;;14.60;67.80;;;;;;5077782;28;20363;-78
2022/12/23 12:51:45;;;;;;;19.83;6.63;;;14.60;67.50;;;;;;5085013;28;20052;-78
2022/12/23 12:54:33;;;;;;;15.15;5.45;;;14.60;67.60;;;;;;5096908;28;20119;-80
2022/12/23 12:57:01;;;;;;;18.92;5.57;;;14.50;68.30;;;;;;5079591;28;20120;-79
2022/12/23 12:59:26;;;;;;;15.32;5.18;;;14.50;68.00;;;;;;5090547;28;20127;-76
2022/12/23 13:02:27;;;;;;;15.80;4.97;;;14.50;68.20;;;;;;5077163;28;20080;-74
2022/12/23 13:05:08;;;;;;;16.92;4.93;;;14.60;68.40;;;;;;5076922;28;20396;-75
2022/12/23 13:07:42;;;;;;;14.23;4.60;;;14.70;68.50;;;;;;5077495;28;20049;-75
2022/12/23 13:10:32;;;;;;;16.98;5.00;;;14.80;68.50;;;;;;5077164;28;20393;-74
2022/12/23 13:13:30;;;;;;;15.35;4.88;;;14.80;68.40;;;;;;5076915;28;20055;-75
2022/12/23 13:16:20;;;;;;;18.13;4.50;;;14.90;69.00;;;;;;5076874;28;20111;-76
2022/12/23 13:19:10;;;;;;;15.80;5.90;;;14.50;68.20;;;;;;5081110;28;20052;-80
2022/12/23 13:22:09;;;;;;;23.27;5.63;;;14.30;68.70;;;;;;5075825;28;20466;-78
2022/12/23 13:25:12;;;;;;;33.13;5.88;;;14.20;69.10;;;;;;5065425;28;20052;-79
2022/12/23 13:28:18;;;;;;;29.65;6.20;;;14.40;71.60;;;;;;5075375;28;20480;-83
2022/12/23 13:31:03;;;;;;;16.70;4.85;;;14.70;71.40;;;;;;5073567;28;20504;-75
2022/12/23 13:34:00;;;;;;;16.98;4.88;;;14.90;70.10;;;;;;5048358;28;20051;-77
2022/12/23 13:36:58;;;;;;;17.52;4.30;;;15.10;69.10;;;;;;5097368;28;20122;-76
2022/12/23 13:39:47;;;;;;;20.30;5.20;;;15.40;68.90;;;;;;5077280;28;20048;-77
2022/12/23 13:42:29;;;;;;;22.13;4.55;;;15.60;69.20;;;;;;5065076;28;20135;-74
2022/12/23 13:44:56;;;;;;;18.52;5.35;;;15.80;68.90;;;;;;5078994;28;20068;-77
2022/12/23 13:47:48;;;;;;;23.92;4.25;;;15.90;68.80;;;;;;5076264;28;20045;-77
2022/12/23 13:50:28;;;;;;;26.45;6.05;;;16.00;69.10;;;;;;5075950;28;20117;-76
2022/12/23 13:53:05;;;;;;;23.10;3.90;;;16.00;69.30;;;;;;5076313;28;20056;-76
2022/12/23 13:55:56;;;;;;;22.98;4.90;;;16.10;69.40;;;;;;5075566;28;20040;-75
2022/12/23 13:58:25;;;;;;;17.58;5.32;;;16.30;69.50;;;;;;5068007;28;20481;-75
2022/12/23 14:01:16;;;;;;;29.55;4.97;;;16.30;69.20;;;;;;5096298;28;20040;-74
2022/12/23 14:03:46;;;;;;;26.65;5.50;;;16.30;69.50;;;;;;5065001;28;20071;-73
2022/12/23 14:06:23;;;;;;;23.95;4.20;;;16.20;69.00;;;;;;5075112;28;20171;-74
2022/12/23 14:08:53;;;;;;;19.23;3.83;;;16.30;69.40;;;;;;5087178;28;20134;-82
2022/12/23 14:11:33;;;;;;;23.70;4.03;;;16.30;69.30;;;;;;5093049;28;20101;-75
2022/12/23 14:14:03;;;;;;;21.65;4.32;;;16.20;69.10;;;;;;5075447;28;20117;-72
2022/12/23 14:16:49;;;;;;;24.20;5.03;;;16.20;69.00;;;;;;5094077;28;20055;-79
2022/12/23 14:19:33;;;;;;;17.88;4.00;;;16.20;69.10;;;;;;5116514;28;20058;-74
2022/12/23 14:22:38;;;;;;;20.80;4.25;;;16.20;69.10;;;;;;5116106;28;20374;-75
2022/12/23 14:25:13;;;;;;;14.88;4.30;;;16.20;69.70;;;;;;5085308;28;20049;-75
2022/12/23 14:27:47;;;;;;;16.23;4.50;;;16.20;70.00;;;;;;5075583;28;20055;-75
2022/12/23 14:30:44;;;;;;;25.52;5.32;;;16.20;70.30;;;;;;5075595;28;20050;-74
2022/12/23 14:33:27;;;;;;;17.45;5.03;;;16.20;71.10;;;;;;5075277;28;20062;-74
2022/12/23 14:36:11;;;;;;;13.43;3.47;;;16.10;71.10;;;;;;5079202;28;20040;-75
2022/12/23 14:38:37;;;;;;;;;;;16.20;71.30;;;;;;5094418;28;20048;-75
2022/12/23 14:41:34;;;;;;;14.93;3.95;;;16.20;71.80;;;;;;5094945;28;19920;-74
2022/12/23 14:44:01;;;;;;;15.25;3.80;;;16.20;72.10;;;;;;5095441;28;20156;-74
2022/12/23 14:46:33;;;;;;;15.85;3.75;;;16.10;70.60;;;;;;5095567;28;20040;-75
2022/12/23 14:48:59;;;;;;;21.00;4.28;;;16.10;71.50;;;;;;5095461;28;20051;-74
2022/12/23 14:51:34;;;;;;;21.05;4.07;;;16.10;71.50;;;;;;5091659;28;20040;-73
2022/12/23 14:53:59;;;;;;;29.23;4.03;;;16.10;71.50;;;;;;5074942;28;20044;-74
2022/12/23 14:56:46;;;;;;;29.42;3.88;;;16.10;71.30;;;;;;5083038;28;20110;-76
2022/12/23 14:59:12;;;;;;;21.48;3.25;;;16.10;71.10;;;;;;5084030;28;20045;-73
2022/12/23 15:01:50;;;;;;;16.42;3.22;;;16.10;71.00;;;;;;5083597;28;20052;-76
2022/12/23 15:04:26;;;;;;;31.90;4.65;;;16.10;71.00;;;;;;5071617;28;20046;-73
2022/12/23 15:07:03;;;;;;;25.25;3.90;;;16.10;70.90;;;;;;5095193;28;20036;-77
2022/12/23 15:09:43;;;;;;;21.08;3.70;;;16.10;70.80;;;;;;5076818;28;20048;-76
2022/12/23 15:12:33;;;;;;;20.65;3.15;;;16.10;70.60;;;;;;5077007;28;20036;-79
2022/12/23 15:15:05;;;;;;;17.60;2.65;;;16.10;70.50;;;;;;5080617;28;20080;-78
2022/12/23 15:17:34;;;;;;;21.30;3.60;;;16.10;70.50;;;;;;5082250;28;20048;-76
2022/12/23 15:20:02;;;;;;;10.70;2.70;;;16.20;70.50;;;;;;5075153;28;20461;-77
2022/12/23 15:22:31;;;;;;;16.40;2.35;;;16.20;70.50;;;;;;5075112;28;20075;-79
2022/12/23 15:24:57;;;;;;;22.80;3.70;;;16.20;70.40;;;;;;5075443;28;20363;-78
2022/12/23 15:27:23;;;;;;;17.75;3.33;;;16.20;70.40;;;;;;5057459;28;20057;-77
2022/12/23 15:29:52;;;;;;;14.93;2.70;;;16.20;70.30;;;;;;5075083;28;20060;-78
2022/12/23 15:32:22;;;;;;;11.48;2.22;;;16.20;70.30;;;;;;5076135;28;20374;-77
2022/12/23 15:34:50;;;;;;;10.52;2.47;;;16.20;70.20;;;;;;5074912;28;20105;-77
2022/12/23 15:37:28;;;;;;;14.10;2.53;;;16.20;70.20;;;;;;5040571;28;20049;-76
2022/12/23 15:39:53;;;;;;;11.48;2.80;;;16.20;70.10;;;;;;5074814;28;20075;-76
2022/12/23 15:42:24;;;;;;;15.82;2.33;;;16.20;70.10;;;;;;5057234;28;20044;-77
2022/12/23 15:44:50;;;;;;;9.95;1.80;;;16.20;70.00;;;;;;5075416;28;20119;-79
2022/12/23 15:47:29;;;;;;;10.57;1.52;;;16.20;70.10;;;;;;5075352;28;20040;-76
2022/12/23 15:49:58;;;;;;;13.68;2.35;;;16.20;70.00;;;;;;5063792;28;20458;-77
2022/12/23 15:52:25;;;;;;;15.68;2.30;;;16.20;70.00;;;;;;5081567;28;20048;-74
2022/12/23 15:55:19;;;;;;;16.55;3.00;;;16.10;70.30;;;;;;5074693;28;20044;-75
2022/12/23 15:57:47;;;;;;;23.67;3.13;;;16.20;70.50;;;;;;5073577;28;20375;-76
2022/12/23 16:00:21;;;;;;;13.48;2.40;;;16.10;70.90;;;;;;5074420;28;20154;-76
2022/12/23 16:02:48;;;;;;;13.98;2.83;;;16.20;71.20;;;;;;5075818;28;20040;-74
2022/12/23 16:05:28;;;;;;;12.27;2.20;;;16.20;71.30;;;;;;5078234;28;20044;-78
2022/12/23 16:08:12;;;;;;;13.90;2.97;;;16.20;71.80;;;;;;5060716;28;20443;-76
2022/12/23 16:10:39;;;;;;;15.55;2.17;;;16.20;72.20;;;;;;5077745;28;20056;-78
2022/12/23 16:13:16;;;;;;;16.15;2.28;;;16.30;71.90;;;;;;5083502;28;20047;-78
2022/12/23 16:15:41;;;;;;;16.90;3.38;;;16.40;72.00;;;;;;5087155;28;20108;-75
2022/12/23 16:18:11;;;;;;;11.32;2.78;;;16.50;71.90;;;;;;5098460;28;20437;-76
2022/12/23 16:20:50;;;;;;;14.13;2.17;;;16.50;71.80;;;;;;5062962;28;20059;-72
2022/12/23 16:23:16;;;;;;;15.45;2.08;;;16.50;71.90;;;;;;5098488;28;20055;-74
2022/12/23 16:25:47;;;;;;;17.38;2.17;;;16.60;71.80;;;;;;5084819;28;20455;-75
2022/12/23 16:28:23;;;;;;;15.77;2.65;;;16.60;71.80;;;;;;5097926;28;20048;-74
2022/12/23 16:30:55;;;;;;;17.27;2.38;;;16.70;71.80;;;;;;5053875;28;20044;-74
2022/12/23 16:33:35;;;;;;;18.10;2.75;;;16.70;71.80;;;;;;5060771;28;20139;-76
2022/12/23 16:36:26;;;;;;;13.75;2.67;;;16.70;71.90;;;;;;5082216;28;20044;-76
2022/12/23 16:38:56;;;;;;;13.85;3.60;;;16.70;71.40;;;;;;5077623;28;20045;-72
2022/12/23 16:41:21;;;;;;;15.15;3.65;;;16.70;70.80;;;;;;5077555;28;20044;-77
2022/12/23 16:43:47;;;;;;;14.52;3.63;;;16.70;69.50;;;;;;5077656;28;20367;-77
2022/12/23 16:46:19;;;;;;;13.45;3.38;;;16.60;69.10;;;;;;5077387;28;20149;-74
2022/12/23 16:48:52;;;;;;;12.32;2.95;;;16.60;69.10;;;;;;5060064;28;20481;-74
2022/12/23 16:51:20;;;;;;;13.02;3.30;;;16.50;69.30;;;;;;5077334;28;20041;-75
2022/12/23 16:53:53;;;;;;;14.23;3.75;;;16.50;69.60;;;;;;5078120;28;20094;-75
2022/12/23 16:56:22;;;;;;;14.02;3.00;;;16.50;69.80;;;;;;5077511;28;20044;-75
2022/12/23 16:58:48;;;;;;;18.23;3.45;;;16.40;70.00;;;;;;5060020;28;20080;-75
2022/12/23 17:01:19;;;;;;;17.77;3.67;;;16.40;70.10;;;;;;5068743;28;20076;-75
2022/12/23 17:03:45;;;;;;;20.02;4.50;;;16.40;70.60;;;;;;5062752;28;20075;-74
2022/12/23 17:06:13;;;;;;;13.93;3.40;;;16.30;70.90;;;;;;5076850;28;20071;-73
2022/12/23 17:08:39;;;;;;;9.45;3.88;;;16.30;70.90;;;;;;5082953;28;20040;-75
2022/12/23 17:11:12;;;;;;;14.75;4.18;;;16.30;70.40;;;;;;5078454;28;20040;-75
2022/12/23 17:13:38;;;;;;;11.77;5.13;;;16.30;69.20;;;;;;5088470;28;20044;-73
2022/12/23 17:16:03;;;;;;;19.50;5.70;;;16.20;67.90;;;;;;5097268;28;20048;-76
2022/12/23 17:18:29;;;;;;;10.50;4.50;;;16.20;67.30;;;;;;5097147;28;20059;-74
2022/12/23 17:20:55;;;;;;;16.35;4.85;;;16.10;67.10;;;;;;5096700;28;20084;-73
2022/12/23 17:23:28;;;;;;;19.52;4.30;;;16.00;66.70;;;;;;5097209;28;20059;-75
2022/12/23 17:25:54;;;;;;;11.77;4.65;;;16.00;67.00;;;;;;5079908;28;20048;-75
2022/12/23 17:28:20;;;;;;;16.00;3.92;;;15.90;67.00;;;;;;5097101;28;20051;-72
2022/12/23 17:30:52;;;;;;;12.55;4.70;;;15.90;67.00;;;;;;5079536;28;20067;-75
2022/12/23 17:33:19;;;;;;;12.65;3.90;;;15.90;67.60;;;;;;5097680;28;20052;-73
2022/12/23 17:35:45;;;;;;;9.60;3.47;;;15.80;67.10;;;;;;5082210;28;20359;-74
2022/12/23 17:38:15;;;;;;;10.57;3.47;;;15.80;67.20;;;;;;5076795;28;20051;-72
2022/12/23 17:40:42;;;;;;;16.23;3.53;;;15.70;67.20;;;;;;5076413;28;20040;-73
2022/12/23 17:43:15;;;;;;;8.20;2.90;;;15.70;67.50;;;;;;5059452;28;20059;-72
2022/12/23 17:45:41;;;;;;;11.75;3.33;;;15.80;67.50;;;;;;5076600;28;20382;-75
2022/12/23 17:48:09;;;;;;;10.13;3.40;;;15.70;67.60;;;;;;5058744;28;20139;-73
2022/12/23 17:50:36;;;;;;;7.78;3.25;;;15.70;67.60;;;;;;5058885;28;20052;-74
2022/12/23 17:53:01;;;;;;;7.70;3.60;;;15.70;67.70;;;;;;5058629;28;20110;-74
2022/12/23 17:55:28;;;;;;;7.85;3.10;;;15.60;67.70;;;;;;5076011;28;20045;-74
2022/12/23 17:57:54;;;;;;;9.88;3.22;;;15.60;67.80;;;;;;5076444;28;20052;-73
2022/12/23 18:00:20;;;;;;;8.68;2.83;;;15.60;67.90;;;;;;5058728;28;20140;-73
2022/12/23 18:02:47;;;;;;;9.55;2.90;;;15.60;68.00;;;;;;5075854;28;20037;-73
2022/12/23 18:05:29;;;;;;;6.55;2.50;;;15.50;68.00;;;;;;5092430;28;20123;-74
2022/12/23 18:07:59;;;;;;;8.52;2.45;;;15.50;68.10;;;;;;5096247;28;20123;-73
2022/12/23 18:10:36;;;;;;;9.95;2.70;;;15.40;68.40;;;;;;5096200;28;20036;-73
2022/12/23 18:13:05;;;;;;;10.32;4.57;;;15.30;68.60;;;;;;5096109;28;20048;-77
2022/12/23 18:15:38;;;;;;;11.95;7.57;;;15.30;68.50;;;;;;5087016;28;20067;-73
2022/12/23 18:18:36;;;;;;;9.85;6.28;;;15.30;65.20;;;;;;5089011;28;20401;-74
2022/12/23 18:21:01;;;;;;;14.15;6.28;;;15.00;66.40;;;;;;5028206;28;20063;-74
2022/12/23 18:23:29;;;;;;;10.00;4.75;;;15.00;67.10;;;;;;5094297;28;20350;-74
2022/12/23 18:25:55;;;;;;;13.57;5.53;;;14.90;68.10;;;;;;5073754;28;20054;-76
2022/12/23 18:28:22;;;;;;;9.82;4.82;;;14.90;68.70;;;;;;5076069;28;20320;-77
2022/12/23 18:30:49;;;;;;;17.25;4.72;;;14.90;69.70;;;;;;5075355;28;20123;-76
2022/12/23 18:33:15;;;;;;;10.05;5.20;;;14.80;69.40;;;;;;5057891;28;20056;-74
2022/12/23 18:35:46;;;;;;;13.75;4.32;;;14.80;69.70;;;;;;5075473;28;20131;-71
2022/12/23 18:38:12;;;;;;;14.70;4.68;;;14.70;70.30;;;;;;5075212;28;20111;-72
2022/12/23 18:40:39;;;;;;;10.57;4.35;;;14.70;70.60;;;;;;5076097;28;20048;-74
2022/12/23 18:43:06;;;;;;;13.15;5.05;;;14.60;71.20;;;;;;5075135;28;20047;-76
2022/12/23 18:45:42;;;;;;;9.20;4.45;;;14.70;71.40;;;;;;5075140;28;20048;-74
2022/12/23 18:48:08;;;;;;;8.13;3.80;;;14.70;72.10;;;;;;5075338;28;20067;-75
2022/12/23 18:50:36;;;;;;;6.38;3.72;;;14.60;72.30;;;;;;5075490;28;20105;-73
2022/12/23 18:53:03;;;;;;;8.45;3.78;;;14.60;72.80;;;;;;5075111;28;20489;-75
2022/12/23 18:55:29;;;;;;;9.45;3.92;;;14.60;72.80;;;;;;5075505;28;20139;-76
2022/12/23 18:57:56;;;;;;;8.45;3.95;;;14.60;73.20;;;;;;5107324;28;20043;-75
2022/12/23 19:00:25;;;;;;;6.60;3.50;;;14.70;73.00;;;;;;5075102;28;20375;-77
2022/12/23 19:02:52;;;;;;;7.50;3.35;;;14.70;73.00;;;;;;5075251;28;20052;-77
2022/12/23 19:05:26;;;;;;;9.73;3.30;;;14.70;72.80;;;;;;5081046;28;20044;-74
2022/12/23 19:07:54;;;;;;;8.93;2.90;;;14.70;72.80;;;;;;5100409;28;20044;-74
2022/12/23 19:10:32;;;;;;;6.72;3.03;;;14.70;72.80;;;;;;5094456;28;20531;-75
2022/12/23 19:12:58;;;;;;;8.68;3.85;;;14.60;72.90;;;;;;5075398;28;20464;-76
2022/12/23 19:15:24;;;;;;;4.10;2.85;;;14.60;72.80;;;;;;5057335;28;20320;-76
2022/12/23 19:17:50;;;;;;;10.35;3.55;;;14.60;72.90;;;;;;5074840;28;20386;-76
2022/12/23 19:20:17;;;;;;;7.60;3.25;;;14.60;72.90;;;;;;5075161;28;20066;-74
2022/12/23 19:22:43;;;;;;;7.15;2.80;;;14.60;72.80;;;;;;5077305;28;20094;-75
2022/12/23 19:25:14;;;;;;;5.82;3.03;;;14.60;72.80;;;;;;5077130;28;20055;-76
2022/12/23 19:27:41;;;;;;;4.40;2.83;;;14.60;72.80;;;;;;5094956;28;20050;-74
2022/12/23 19:30:09;;;;;;;5.88;3.20;;;14.60;72.80;;;;;;5095158;28;20048;-76
2022/12/23 19:32:35;;;;;;;5.55;2.90;;;14.60;72.80;;;;;;5088838;28;20070;-74
2022/12/23 19:35:01;;;;;;;4.57;2.28;;;14.50;72.90;;;;;;5090174;28;20048;-76
2022/12/23 19:37:27;;;;;;;4.00;2.13;;;14.50;72.80;;;;;;5076783;28;20060;-76
2022/12/23 19:39:52;;;;;;;5.95;3.38;;;14.50;72.80;;;;;;5083981;28;20040;-74
2022/12/23 19:42:19;;;;;;;6.25;2.25;;;14.50;72.80;;;;;;5098890;28;20343;-76
2022/12/23 19:44:45;;;;;;;5.07;2.58;;;14.50;72.90;;;;;;5099167;28;20044;-75
2022/12/23 19:47:10;;;;;;;9.98;2.92;;;14.50;72.90;;;;;;5099557;28;20133;-76
2022/12/23 19:49:36;;;;;;;7.03;2.47;;;14.50;72.90;;;;;;5099523;28;20051;-75
2022/12/23 19:52:02;;;;;;;5.28;2.40;;;14.50;72.90;;;;;;5077419;28;20048;-78
2022/12/23 19:54:28;;;;;;;6.13;2.50;;;14.50;72.90;;;;;;5078639;28;20480;-75
2022/12/23 19:56:53;;;;;;;5.93;2.47;;;14.50;72.90;;;;;;5078477;28;20036;-75
2022/12/23 19:59:19;;;;;;;3.88;2.38;;;14.50;73.00;;;;;;5078467;28;20041;-79
2022/12/23 20:01:46;;;;;;;8.07;2.92;;;14.50;73.00;;;;;;5078678;28;20474;-75
2022/12/23 20:04:11;;;;;;;4.03;2.20;;;14.40;73.00;;;;;;5077808;28;20440;-76
2022/12/23 20:06:39;;;;;;;6.30;2.55;;;14.50;73.10;;;;;;5078686;28;20047;-75
2022/12/23 20:09:07;;;;;;;5.93;2.17;;;14.40;73.00;;;;;;5078306;28;20513;-76
2022/12/23 20:11:35;;;;;;;5.05;1.88;;;14.40;73.00;;;;;;5078193;28;20048;-74
2022/12/23 20:14:02;;;;;;;4.38;1.80;;;14.50;73.10;;;;;;5060872;28;20048;-76
2022/12/23 20:16:28;;;;;;;3.53;1.90;;;14.40;73.10;;;;;;5077486;28;20063;-75
2022/12/23 20:18:55;;;;;;;6.20;2.20;;;14.40;73.10;;;;;;5077138;28;20048;-75
2022/12/23 20:21:21;;;;;;;5.82;2.22;;;14.40;73.10;;;;;;5079339;28;20098;-75